Estació meteorològica de Mataró (Maresme, Maresme)

Consulta les dades en temps real de l'estació meteorològica de Mataró





Hora UTC 17:45
Temperatura 27.2 ºC
Sòl 15 cm 27.8 ºC
Humitat 74.9 %
Pressió 1020.7 hPa
Pluja 0.0 mm
Velocitat vent 9.4 km/h
Direcció vent SW
Radiació solar 27.0 W/m²

Webcam

Dades diàries 2026-09-03



Hora UTC (hivern +1h; estiu +2h)
Temperatura (ºC) Humitat (%) Pressió (hPa) Velocitat vent (km/h) Precipitació (mm) Radiació solar (W/m²)
Hora UTC Aire Sòl 15 cm Humitat Pressió Vel. Dir. Vel. Max Dir. Intent. màx 5 min. Rad. Sol.
00:05 24.5 22.5 48.3 1021.0 8.4 NNW 8.4 NNW 0.0 0.1
00:10 24.6 22.6 48.8 1021.0 8.7 NNW 12.4 NNW 0.0 0.1
00:15 25.0 22.7 48.7 1021.0 9.8 NNW 13.4 NNW 0.0 0.1
00:20 25.5 23.1 47.0 1021.0 10.0 NNW 13.8 NNW 0.0 0.1
00:25 25.6 23.5 46.6 1021.0 9.7 NW 12.0 NNW 0.0 0.1
00:30 25.6 23.7 46.5 1021.0 10.2 NNW 14.1 NNW 0.0 0.1
00:35 25.6 23.8 46.8 1021.0 10.8 NNW 13.8 NNW 0.0 0.1
00:40 25.8 24.0 46.6 1021.0 11.7 NNW 14.8 NNW 0.0 0.1
00:45 25.8 24.1 45.8 1020.9 9.4 NNW 13.1 NNW 0.0 0.1
00:50 25.5 24.1 45.9 1020.9 8.4 NNW 9.9 NNW 0.0 0.1
00:55 25.2 23.9 47.1 1021.0 8.6 NNW 10.2 NNW 0.0 0.1
01:00 24.9 23.7 49.0 1021.0 7.3 NW 9.5 NW 0.0 0.1
01:05 24.9 23.4 49.6 1020.9 7.4 NW 10.2 NNW 0.0 0.1
01:10 24.8 23.1 49.9 1020.8 6.4 NNW 8.8 NNW 0.0 0.1
01:15 24.5 22.8 50.5 1020.8 6.8 NNW 9.9 NNW 0.0 0.1
01:20 24.4 22.5 50.3 1020.9 7.1 NNW 10.6 NW 0.0 0.1
01:25 24.6 22.4 48.9 1020.9 8.6 NNW 13.1 NNW 0.0 0.1
01:30 24.8 22.5 48.1 1020.8 7.1 NNW 9.2 NNW 0.0 0.1
01:35 24.8 22.5 47.7 1020.7 9.3 NNW 15.2 NNW 0.0 0.1
01:40 25.3 22.8 47.0 1020.7 12.2 NNW 15.5 NNW 0.0 0.1
01:45 25.7 23.4 46.8 1020.8 13.1 NNW 19.1 NNW 0.0 0.1
01:50 26.0 24.0 47.2 1020.8 13.0 NNW 17.3 NW 0.0 0.1
01:55 26.1 24.5 47.1 1020.8 12.0 NNW 16.6 NNW 0.0 0.1
02:00 26.2 24.8 46.7 1020.8 12.6 NNW 18.0 NNW 0.0 0.1
02:05 26.2 25.0 46.2 1020.8 12.4 NNW 18.7 NW 0.0 0.1
02:10 26.3 25.1 46.0 1020.9 10.9 NNW 15.9 NW 0.0 0.1
02:15 26.3 25.1 45.4 1020.9 10.9 NNW 14.5 NNW 0.0 0.1
02:20 26.2 25.0 45.6 1020.9 10.1 NNW 14.1 NNW 0.0 0.1
02:25 26.2 25.0 45.8 1020.8 11.2 NNW 15.5 NNW 0.0 0.1
02:30 26.2 25.0 45.6 1020.8 9.9 NNW 15.9 NNW 0.0 0.1
02:35 26.3 25.0 45.4 1020.8 11.0 NNW 14.5 NNW 0.0 0.1
02:40 26.2 24.9 45.7 1020.8 6.5 NNW 8.1 NNW 0.0 0.1
02:45 25.8 24.7 47.3 1020.8 5.9 NNW 9.5 NNW 0.0 0.1
02:50 25.7 24.5 49.2 1020.7 6.4 N 8.5 N 0.0 0.1
02:55 25.9 24.3 48.9 1020.7 5.6 N 7.1 N 0.0 0.1
03:00 26.1 24.3 48.5 1020.7 5.8 NNE 8.1 N 0.0 0.1
03:05 26.2 24.4 48.2 1020.7 6.7 NNE 9.2 NNE 0.0 0.1
03:10 26.4 24.7 47.8 1020.7 8.3 N 10.6 N 0.0 0.1
03:15 26.5 25.0 47.7 1020.7 8.0 NNE 10.9 N 0.0 0.1
03:20 26.5 25.1 48.0 1020.6 6.3 NNE 8.1 N 0.0 0.1
03:25 26.5 25.2 48.0 1020.6 4.3 NNE 6.4 NNE 0.0 0.1
03:30 26.6 25.2 47.9 1020.6 3.7 NE 5.6 NE 0.0 0.1
03:35 26.6 24.9 48.0 1020.7 3.0 NNE 4.9 NNE 0.0 0.1
03:40 26.2 24.4 49.0 1020.6 3.0 NNE 6.0 NE 0.0 0.1
03:45 26.0 23.9 49.4 1020.6 3.0 NNE 4.6 NNE 0.0 0.1
03:50 26.0 23.5 49.1 1020.5 1.6 NE 3.2 NE 0.0 0.1
03:55 26.0 23.0 49.1 1020.5 1.2 NNE 2.5 NE 0.0 0.1
04:00 25.8 22.8 49.6 1020.5 1.6 N 3.5 NNE 0.0 0.1
04:05 25.6 22.7 50.3 1020.5 0.8 N 3.2 NNW 0.0 0.1
04:10 25.2 22.5 51.4 1020.4 3.5 NNW 4.9 NNW 0.0 0.1
04:15 25.2 22.5 51.4 1020.4 2.4 NNW 3.9 NNW 0.0 0.1
04:20 25.2 22.5 51.1 1020.4 2.2 NNW 3.2 NNW 0.0 0.1
04:25 25.3 22.3 51.0 1020.5 0.6 NNW 1.8 NNW 0.0 0.1
04:30 25.2 22.0 51.1 1020.5 0.7 NNW 2.5 NNW 0.0 0.1
04:35 25.0 21.7 51.6 1020.5 1.7 NNW 2.5 NNW 0.0 0.1
04:40 25.0 21.6 51.6 1020.5 0.6 N 1.8 N 0.0 0.1
04:45 24.9 21.4 51.8 1020.5 0.1 N 1.1 N 0.0 0.1
04:50 25.0 21.1 51.5 1020.6 0.0 NNE 0.0 N 0.0 0.1
04:55 24.9 20.7 51.8 1020.6 0.0 NNE 0.0 N 0.0 0.2
05:00 24.8 20.5 52.1 1020.6 0.0 NNE 0.0 N 0.0 0.4
05:05 24.7 20.4 52.3 1020.6 0.0 NNE 0.0 N 0.0 1.0
05:10 24.7 20.4 52.2 1020.6 0.0 NNE 0.0 ENE 0.0 1.9
05:15 24.6 20.3 52.7 1020.7 0.0 NNE 0.0 ENE 0.0 3.2
05:20 24.5 20.4 52.8 1020.8 0.0 NNE 0.0 ENE 0.0 5.3
05:25 24.6 20.5 52.6 1020.8 0.0 NNE 0.0 ENE 0.0 8.0
05:30 24.5 20.6 52.9 1020.8 0.0 NNE 0.0 ENE 0.0 11.1
05:35 24.4 20.7 52.9 1020.9 0.0 NNE 0.0 ENE 0.0 14.2
05:40 24.5 20.8 52.8 1021.0 0.0 NNE 0.0 ENE 0.0 17.3
05:45 24.7 21.1 52.5 1021.0 0.3 ENE 1.8 ENE 0.0 20.4
05:50 24.7 21.4 52.8 1021.1 0.2 ENE 1.8 ENE 0.0 23.9
05:55 24.7 21.7 53.0 1021.1 0.3 NNW 2.8 NNW 0.0 26.5
06:00 24.6 22.0 53.2 1021.1 2.8 N 3.9 NNW 0.0 47.1
06:05 24.8 22.5 52.4 1021.2 2.0 N 2.5 N 0.0 90.8
06:10 25.1 23.4 51.4 1021.3 2.2 N 3.5 NNW 0.0 103.9
06:15 25.2 24.7 51.3 1021.3 0.0 NNE 0.0 NNE 0.0 117.2
06:20 25.5 25.9 51.0 1021.3 0.0 NNE 0.0 NNE 0.0 130.5
06:25 25.7 27.2 50.6 1021.4 0.0 NNE 0.0 NNE 0.0 143.7
06:30 26.0 28.5 49.5 1021.4 0.2 SE 2.8 ESE 0.0 157.2
06:35 26.5 29.6 48.2 1021.5 1.4 E 3.5 ESE 0.0 170.7
06:40 26.9 30.6 47.0 1021.6 2.6 ENE 5.6 E 0.0 184.3
06:45 27.3 31.4 46.6 1021.7 1.7 E 4.6 SE 0.0 198.1
06:50 27.6 32.0 46.1 1021.7 3.3 ESE 5.6 ESE 0.0 211.9
06:55 27.8 32.5 45.9 1021.7 3.9 SE 6.4 ESE 0.0 225.5
07:00 27.9 32.9 45.9 1021.7 3.9 SE 9.2 SE 0.0 239.3
07:05 27.9 33.1 46.4 1021.8 4.0 SSE 5.6 ESE 0.0 253.0
07:10 28.0 33.4 46.6 1021.7 3.4 SSE 6.7 SSE 0.0 266.4
07:15 28.1 33.7 46.9 1021.8 4.1 S 7.1 S 0.0 280.2
07:20 28.0 33.9 47.4 1021.8 3.5 SE 6.4 SE 0.0 294.1
07:25 28.2 34.1 47.4 1021.8 4.7 SE 7.1 SE 0.0 307.7
07:30 28.3 34.4 47.3 1021.9 5.4 SE 9.5 SSE 0.0 321.1
07:35 28.3 34.8 48.2 1021.9 5.5 SSE 10.2 S 0.0 334.5
07:40 28.3 35.2 48.2 1021.8 6.5 SSE 9.9 SSE 0.0 347.8
07:45 28.5 35.5 47.0 1021.8 6.1 SSE 10.2 SSE 0.0 360.7
07:50 28.4 35.6 46.5 1021.9 6.5 SSE 9.9 SSE 0.0 373.7
07:55 28.4 35.7 46.3 1021.9 7.9 SE 11.6 SSE 0.0 386.7
08:00 28.5 35.7 45.0 1021.9 7.3 SSE 12.7 SSW 0.0 400.2
08:05 28.7 35.8 44.4 1021.9 6.7 ESE 10.2 SSE 0.0 412.7
08:10 28.7 35.9 44.9 1021.9 7.5 SSE 13.4 SSE 0.0 425.0
08:15 28.6 36.1 44.4 1021.9 7.7 SSE 12.7 SSE 0.0 437.2
08:20 28.5 36.2 45.7 1022.0 7.9 S 12.7 S 0.0 449.3
08:25 28.5 36.4 47.4 1022.0 7.0 SSE 11.6 S 0.0 461.9
08:30 28.5 36.6 47.8 1022.0 8.8 SSE 15.9 SSE 0.0 474.2
08:35 28.5 36.6 48.7 1022.1 8.3 SSE 13.1 SSE 0.0 485.8
08:40 28.5 36.8 48.7 1022.1 7.6 SSE 11.6 SSE 0.0 466.2
08:45 28.6 37.0 48.6 1022.2 7.1 S 11.3 S 0.0 508.6
08:50 28.5 37.1 48.9 1022.2 6.8 SSE 9.5 SSE 0.0 520.3
08:55 28.6 37.4 47.9 1022.2 5.9 SSE 9.5 SSE 0.0 531.1
09:00 29.0 37.9 45.1 1022.2 5.6 S 11.3 SSW 0.0 542.6
09:05 29.1 38.3 46.1 1022.3 6.2 SE 10.9 SE 0.0 553.0
09:10 29.2 38.4 45.1 1022.4 9.8 SE 16.6 SE 0.0 563.4
09:15 28.9 38.2 44.8 1022.4 8.5 SE 12.7 SSE 0.0 573.0
09:20 29.0 38.2 44.4 1022.4 9.5 SE 15.2 SSE 0.0 583.0
09:25 29.1 38.1 47.7 1022.5 9.6 SE 15.5 SSE 0.0 590.2
09:30 29.0 38.2 51.0 1022.5 8.0 SE 14.5 SE 0.0 598.6
09:35 28.9 38.2 53.2 1022.6 9.5 SE 15.5 SE 0.0 606.0
09:40 28.8 38.1 56.0 1022.5 8.2 SE 13.8 SSE 0.0 613.9
09:45 28.8 38.2 57.4 1022.5 8.9 SE 16.2 SE 0.0 622.3
09:50 28.8 38.4 58.6 1022.5 9.0 SE 13.8 SSE 0.0 628.9
09:55 28.7 38.6 58.9 1022.5 9.6 SE 13.8 SSE 0.0 638.9
10:00 28.7 38.5 59.0 1022.5 10.9 SE 15.9 SSE 0.0 645.5
10:05 28.7 38.6 57.3 1022.5 9.8 S 16.2 S 0.0 653.2
10:10 28.8 38.9 58.4 1022.4 9.5 SSE 15.9 S 0.0 659.6
10:15 29.0 39.1 57.5 1022.4 9.5 S 17.3 S 0.0 665.9
10:20 29.1 39.4 57.5 1022.4 10.8 SSW 17.6 S 0.0 671.1
10:25 28.8 39.2 57.5 1022.4 11.5 SSW 17.3 S 0.0 679.6
10:30 28.8 39.0 58.7 1022.3 10.0 SSW 16.2 SSW 0.0 684.3
10:35 29.1 39.1 59.4 1022.2 10.2 S 18.4 SSE 0.0 691.0
10:40 29.0 39.3 60.3 1022.2 11.0 S 19.1 SSE 0.0 695.0
10:45 29.0 39.4 61.4 1022.2 10.9 SSE 20.8 SE 0.0 699.1
10:50 29.0 39.5 60.5 1022.2 12.4 SSE 19.4 SSE 0.0 703.3
10:55 28.8 39.7 61.4 1022.1 11.1 SSE 18.4 SE 0.0 706.3
11:00 29.3 39.9 56.7 1022.0 9.3 SSW 17.6 S 0.0 712.1
11:05 29.6 40.4 52.7 1022.1 9.0 S 18.7 SSW 0.0 716.6
11:10 29.6 40.3 50.6 1022.1 12.4 S 21.2 SSE 0.0 720.5
11:15 29.6 40.2 52.1 1022.0 12.9 S 20.8 SSW 0.0 722.3
11:20 29.6 40.1 52.5 1021.9 10.8 S 20.1 SSW 0.0 725.1
11:25 29.7 40.2 50.9 1022.0 13.4 S 21.2 S 0.0 726.9
11:30 29.4 40.1 53.6 1022.0 11.4 S 18.4 SSE 0.0 727.9
11:35 29.3 40.2 52.9 1021.9 10.4 S 20.1 SE 0.0 729.1
11:40 29.6 40.5 48.9 1021.8 10.6 SSW 18.4 SSW 0.0 730.9
11:45 29.7 40.7 48.8 1021.8 11.1 SSW 21.2 S 0.0 733.9
11:50 29.6 41.0 47.9 1021.8 11.6 S 18.0 S 0.0 733.6
11:55 29.6 41.0 50.1 1021.7 9.8 S 19.4 SSE 0.0 732.7
12:00 29.7 40.8 48.7 1021.7 10.0 S 16.6 S 0.0 729.4
12:05 29.7 40.9 50.5 1021.7 9.5 S 16.9 SSW 0.0 727.3
12:10 29.9 41.0 49.5 1021.7 11.0 S 20.5 SSE 0.0 724.4
12:15 29.8 41.0 49.5 1021.6 11.6 S 22.6 S 0.0 725.8
12:20 30.0 41.0 46.3 1021.6 12.0 SSW 21.2 S 0.0 726.2
12:25 30.0 40.9 49.9 1021.7 7.6 S 15.9 SSE 0.0 720.2
12:30 30.2 41.2 48.3 1021.6 10.9 S 19.8 SSE 0.0 717.1
12:35 30.1 41.3 48.5 1021.5 9.3 S 18.7 SE 0.0 713.6
12:40 30.1 41.4 45.8 1021.5 13.9 SSE 21.5 SSE 0.0 712.7
12:45 29.9 41.1 42.5 1021.6 12.1 SSW 20.1 SSW 0.0 710.4
12:50 30.2 40.9 43.6 1021.6 8.9 S 17.6 SSE 0.0 704.6
12:55 30.3 40.9 43.8 1021.5 13.9 S 23.3 SSE 0.0 701.7
13:00 29.8 40.8 47.5 1021.5 12.7 S 21.9 S 0.0 697.7
13:05 29.9 40.7 44.9 1021.6 12.8 SSW 19.1 SW 0.0 694.5
13:10 30.1 40.6 46.0 1021.5 10.1 SSW 19.4 S 0.0 684.4
13:15 30.2 40.4 45.9 1021.4 13.6 SSW 28.9 WSW 0.0 680.4
13:20 30.2 40.3 48.7 1021.4 13.8 S 23.3 SSE 0.0 672.3
13:25 29.7 40.0 51.6 1021.5 10.9 SSW 19.4 SSE 0.0 667.6
13:30 29.8 39.7 48.6 1021.5 12.1 SSW 21.5 SW 0.0 659.9
13:35 29.8 39.5 52.9 1021.4 10.4 SSW 18.4 SW 0.0 653.7
13:40 29.9 39.8 52.7 1021.4 11.3 S 22.6 SSE 0.0 647.9
13:45 29.5 39.7 53.1 1021.4 12.1 SSE 24.3 SSE 0.0 640.1
13:50 29.5 39.6 53.1 1021.3 13.0 S 22.9 SW 0.0 631.3
13:55 29.5 39.5 53.1 1021.3 10.4 S 18.4 S 0.0 624.6
14:00 29.3 39.4 54.7 1021.3 13.1 S 22.2 SSW 0.0 615.0
14:05 29.3 38.9 55.2 1021.3 11.9 S 19.1 SSE 0.0 603.4
14:10 29.1 38.5 56.4 1021.2 11.1 S 18.7 S 0.0 566.3
14:15 29.1 38.3 56.9 1021.2 9.1 S 16.9 SSE 0.0 585.2
14:20 29.4 38.0 55.6 1021.2 12.4 SSW 23.6 S 0.0 573.9
14:25 29.1 37.1 57.1 1021.2 13.0 SW 21.2 SW 0.0 565.7
14:30 29.1 35.7 58.0 1021.1 11.7 SSW 25.1 SW 0.0 554.6
14:35 29.2 34.9 58.2 1021.1 13.9 SW 23.6 SW 0.0 542.0
14:40 29.0 34.5 59.2 1021.1 12.3 SSW 25.4 SW 0.0 531.5
14:45 28.9 34.3 59.0 1021.1 16.0 SW 27.2 SW 0.0 521.8
14:50 28.9 34.0 60.4 1021.0 12.6 SW 23.3 SW 0.0 511.1
14:55 28.8 33.6 60.4 1021.0 13.9 SSW 22.6 S 0.0 498.5
15:00 28.7 33.1 61.5 1021.0 12.7 S 25.8 S 0.0 485.2
15:05 28.8 32.7 61.6 1021.0 11.9 SSW 21.9 SSE 0.0 472.8
15:10 28.8 32.1 61.2 1020.9 12.7 SW 23.3 SW 0.0 460.6
15:15 29.0 31.5 61.5 1020.8 10.1 SSW 20.1 SW 0.0 449.4
15:20 29.0 31.2 61.2 1020.8 15.2 SW 27.2 SW 0.0 437.0
15:25 28.8 30.8 62.5 1020.8 13.9 SW 24.7 S 0.0 424.5
15:30 28.7 30.4 63.2 1020.6 13.1 SW 22.6 SSW 0.0 412.6
15:35 29.0 30.3 63.0 1020.6 12.0 SSW 22.6 SW 0.0 399.7
15:40 28.7 30.2 64.2 1020.6 13.3 SSW 26.1 SW 0.0 386.7
15:45 28.7 30.1 64.6 1020.6 12.8 SSW 25.4 SSW 0.0 372.8
15:50 28.6 29.9 64.9 1020.7 11.9 SW 24.0 SW 0.0 358.3
15:55 28.6 29.8 65.5 1020.6 13.4 SW 24.7 WSW 0.0 345.2
16:00 28.6 29.8 66.1 1020.6 12.6 SW 21.9 SE 0.0 336.7
16:05 28.5 29.7 65.7 1020.6 10.8 SW 20.5 WSW 0.0 318.9
16:10 28.5 29.6 66.8 1020.6 11.6 SSW 24.7 SW 0.0 300.8
16:15 28.5 29.6 66.7 1020.7 11.8 SW 23.6 WSW 0.0 300.2
16:20 28.5 29.6 68.9 1020.7 10.8 S 21.5 SW 0.0 289.2
16:25 28.3 29.6 69.7 1020.6 10.6 SSW 19.8 S 0.0 269.0
16:30 28.1 29.5 71.0 1020.6 11.9 SSW 20.5 SW 0.0 248.4
16:35 27.9 29.4 71.6 1020.6 12.8 SW 23.3 SW 0.0 198.9
16:40 28.0 29.3 71.4 1020.7 10.3 SSW 21.2 S 0.0 231.3
16:45 27.9 29.6 70.9 1020.7 11.0 SW 21.2 WSW 0.0 223.7
16:50 27.9 30.2 71.0 1020.8 12.8 SSW 22.9 S 0.0 213.2
16:55 27.7 30.4 71.4 1020.7 12.7 SW 22.6 SW 0.0 194.5
17:00 27.7 30.2 71.5 1020.7 10.7 SW 19.4 SSW 0.0 178.2
17:05 27.7 30.1 72.1 1020.6 9.3 SW 18.4 SW 0.0 163.3
17:10 27.8 30.2 72.1 1020.7 9.5 WSW 18.4 WSW 0.0 146.5
17:15 27.7 30.1 72.6 1020.7 9.4 SW 16.9 SW 0.0 129.0
17:20 27.7 30.0 73.0 1020.7 11.0 SSW 19.1 SSW 0.0 118.3
17:25 27.5 29.8 73.6 1020.7 7.9 SW 14.8 SSW 0.0 105.2
17:30 27.5 29.4 73.2 1020.6 11.6 SSW 20.1 SSW 0.0 76.2
17:35 27.3 28.7 74.3 1020.6 7.1 SW 12.7 S 0.0 33.8
17:40 27.3 28.2 74.3 1020.7 12.1 SW 22.2 SW 0.0 30.2
17:45 27.2 27.8 74.9 1020.7 9.4 SW 14.8 SSW 0.0 27.0
Màxima 30.3 41.4 74.9 1022.6 16.0 SW 28.9 WSW 0.0 733.9
Mínima 20 20 42.5 1020.4
Total 0.0